createdAt,value
2018-06-17T00:00:15.729Z,0
2018-06-17T00:00:56.306Z,0
2018-06-17T00:01:36.864Z,0
2018-06-17T00:02:17.414Z,0
2018-06-17T00:02:58.009Z,0
2018-06-17T00:03:38.559Z,0
2018-06-17T00:04:19.132Z,0
2018-06-17T00:04:59.699Z,0
2018-06-17T00:05:40.253Z,0
2018-06-17T00:06:20.835Z,0
2018-06-17T00:07:01.373Z,0
2018-06-17T00:07:41.927Z,0
2018-06-17T00:08:22.472Z,0
2018-06-17T00:09:03.042Z,0
2018-06-17T00:09:43.595Z,0
2018-06-17T00:10:24.199Z,0
2018-06-17T00:11:04.776Z,0
2018-06-17T00:11:45.332Z,0
2018-06-17T00:12:25.902Z,0
2018-06-17T00:13:06.442Z,0
2018-06-17T00:13:47.003Z,0
2018-06-17T00:14:27.586Z,0
2018-06-17T00:15:08.167Z,0
2018-06-17T00:15:48.724Z,0
2018-06-17T00:16:29.292Z,0
2018-06-17T00:17:09.845Z,0
2018-06-17T00:17:50.421Z,0
2018-06-17T00:18:30.983Z,0
2018-06-17T00:19:11.549Z,0
2018-06-17T00:19:52.138Z,0
2018-06-17T00:20:32.680Z,0
2018-06-17T00:21:13.235Z,0
2018-06-17T00:21:53.798Z,0
2018-06-17T00:22:34.396Z,0
2018-06-17T00:23:14.980Z,0
2018-06-17T00:23:55.559Z,0
2018-06-17T00:24:36.113Z,0
2018-06-17T00:25:16.720Z,0
2018-06-17T00:25:57.316Z,0
2018-06-17T00:26:37.864Z,0
2018-06-17T00:27:18.460Z,0
2018-06-17T00:27:59.043Z,0
2018-06-17T00:28:40.217Z,0
2018-06-17T00:29:20.761Z,0
2018-06-17T00:30:01.381Z,0
2018-06-17T00:30:41.966Z,0
2018-06-17T00:31:22.522Z,0
2018-06-17T00:32:03.079Z,0
2018-06-17T00:32:43.637Z,0
2018-06-17T00:33:24.200Z,0
2018-06-17T00:34:04.768Z,0
2018-06-17T00:34:45.323Z,0
2018-06-17T00:35:26.229Z,0
2018-06-17T00:36:06.779Z,0
2018-06-17T00:36:47.350Z,0
2018-06-17T00:37:27.900Z,0
2018-06-17T00:38:08.469Z,0
2018-06-17T00:38:49.036Z,0
2018-06-17T00:39:29.582Z,0
2018-06-17T00:40:10.140Z,0
2018-06-17T00:40:50.699Z,0
2018-06-17T00:41:31.284Z,0
2018-06-17T00:42:11.835Z,0
2018-06-17T00:42:52.416Z,0
2018-06-17T00:43:32.963Z,0
2018-06-17T00:44:13.586Z,0
2018-06-17T00:44:54.150Z,0
2018-06-17T00:45:34.728Z,0
2018-06-17T00:46:15.289Z,0
2018-06-17T00:46:55.966Z,0
2018-06-17T00:47:36.560Z,0
2018-06-17T00:48:17.125Z,0
2018-06-17T00:48:57.703Z,0
2018-06-17T00:49:38.267Z,0
2018-06-17T00:50:18.831Z,0
2018-06-17T00:50:59.421Z,0
2018-06-17T00:51:39.981Z,0
2018-06-17T00:52:20.768Z,0
2018-06-17T00:53:01.336Z,0
2018-06-17T00:53:41.930Z,0
2018-06-17T00:54:22.500Z,0
2018-06-17T00:55:03.055Z,0
2018-06-17T00:55:43.628Z,0
2018-06-17T00:56:24.197Z,0
2018-06-17T00:57:04.746Z,0
2018-06-17T00:57:45.299Z,0
2018-06-17T00:58:26.261Z,0
2018-06-17T00:59:06.907Z,0
2018-06-17T00:59:47.872Z,0
2018-06-17T01:00:28.427Z,0
2018-06-17T01:01:09.080Z,0
2018-06-17T01:01:50.570Z,0
2018-06-17T01:02:31.387Z,0
2018-06-17T01:05:11.370Z,0
2018-06-17T01:05:51.920Z,0
2018-06-17T01:06:32.546Z,0
2018-06-17T01:07:13.050Z,0
2018-06-17T01:07:53.888Z,0
2018-06-17T01:08:35.974Z,0
2018-06-17T01:09:16.550Z,0
2018-06-17T01:09:57.225Z,0
2018-06-17T01:10:37.813Z,0
2018-06-17T01:11:18.422Z,0
2018-06-17T01:12:00.295Z,0
2018-06-17T01:12:40.890Z,0
2018-06-17T01:13:21.433Z,0
2018-06-17T01:14:02.974Z,0
2018-06-17T01:14:43.553Z,0
2018-06-17T01:15:24.086Z,0
2018-06-17T01:16:05.245Z,0
2018-06-17T01:16:45.864Z,0
2018-06-17T01:17:26.536Z,0
2018-06-17T01:18:07.221Z,0
2018-06-17T01:18:47.862Z,0
2018-06-17T01:19:28.551Z,0
2018-06-17T01:20:09.238Z,0
2018-06-17T01:20:49.872Z,0
2018-06-17T01:21:30.427Z,0
2018-06-17T01:22:11.035Z,0
2018-06-17T01:22:51.590Z,0
2018-06-17T01:23:32.183Z,0
2018-06-17T01:24:12.773Z,0
2018-06-17T01:24:53.339Z,0
2018-06-17T01:25:33.892Z,0
2018-06-17T01:26:14.460Z,0
2018-06-17T01:26:55.020Z,0
2018-06-17T01:27:35.585Z,0
2018-06-17T01:28:16.150Z,0
2018-06-17T01:28:56.739Z,0
2018-06-17T01:29:37.311Z,0
2018-06-17T01:30:17.863Z,0
2018-06-17T01:30:58.429Z,0
2018-06-17T01:31:38.978Z,0
2018-06-17T01:32:19.546Z,0
2018-06-17T01:33:00.107Z,0
2018-06-17T01:33:40.695Z,0
2018-06-17T01:34:21.258Z,0
2018-06-17T01:35:01.817Z,0
2018-06-17T01:35:42.373Z,0
2018-06-17T01:36:22.929Z,0
2018-06-17T01:37:03.541Z,0
2018-06-17T01:37:44.062Z,0
2018-06-17T01:38:24.628Z,0
2018-06-17T01:39:05.190Z,0
2018-06-17T01:39:45.841Z,0
2018-06-17T01:40:26.390Z,0
2018-06-17T01:41:06.953Z,0
2018-06-17T01:41:47.520Z,0
2018-06-17T01:42:28.085Z,0
2018-06-17T01:43:08.659Z,0
2018-06-17T01:43:49.226Z,0
2018-06-17T01:44:29.781Z,0
2018-06-17T01:45:10.348Z,0
2018-06-17T01:45:50.903Z,0
2018-06-17T01:46:31.447Z,0
2018-06-17T01:47:12.005Z,0
2018-06-17T01:47:52.557Z,0
2018-06-17T01:48:33.114Z,0
2018-06-17T01:49:13.649Z,0
2018-06-17T01:49:54.221Z,0
2018-06-17T01:50:34.801Z,0
2018-06-17T01:51:15.356Z,0
2018-06-17T01:51:55.908Z,0
2018-06-17T01:52:36.488Z,0
2018-06-17T01:53:17.053Z,0
2018-06-17T01:53:57.608Z,0
2018-06-17T01:54:38.170Z,0
2018-06-17T01:55:18.767Z,0
2018-06-17T01:55:59.326Z,0
2018-06-17T01:56:39.884Z,0
2018-06-17T01:57:20.450Z,0
2018-06-17T01:58:01.015Z,0
2018-06-17T01:58:41.900Z,0
2018-06-17T01:59:22.471Z,0
2018-06-17T02:00:03.028Z,0
2018-06-17T02:00:43.575Z,0
2018-06-17T02:01:24.241Z,0
2018-06-17T02:02:04.781Z,0
2018-06-17T02:02:45.343Z,0
2018-06-17T02:03:25.901Z,0
2018-06-17T02:04:06.478Z,0
2018-06-17T02:04:47.042Z,0
2018-06-17T02:05:27.610Z,0
2018-06-17T02:06:08.165Z,0
2018-06-17T02:06:48.726Z,0
2018-06-17T02:07:29.285Z,0
2018-06-17T02:08:09.850Z,0
2018-06-17T02:08:50.397Z,0
2018-06-17T02:09:31.721Z,0
2018-06-17T02:10:12.288Z,0
2018-06-17T02:10:52.883Z,0
2018-06-17T02:11:33.444Z,0
2018-06-17T02:12:14.033Z,0
2018-06-17T02:12:54.607Z,0
2018-06-17T02:13:35.178Z,0
2018-06-17T02:14:15.734Z,0
2018-06-17T02:14:56.325Z,0
2018-06-17T02:15:36.868Z,0
2018-06-17T02:16:17.429Z,0
2018-06-17T02:16:57.983Z,0
2018-06-17T02:17:38.533Z,0
2018-06-17T02:18:19.094Z,0
2018-06-17T02:18:59.665Z,0
2018-06-17T02:19:40.227Z,0
2018-06-17T02:20:20.780Z,0
2018-06-17T02:21:01.358Z,0
2018-06-17T02:21:41.909Z,0
2018-06-17T02:22:22.471Z,0
2018-06-17T02:23:03.055Z,0
2018-06-17T02:23:43.609Z,0
2018-06-17T02:24:24.191Z,0
2018-06-17T02:25:04.766Z,0
2018-06-17T02:25:45.317Z,0
2018-06-17T02:26:25.879Z,0
2018-06-17T02:27:06.433Z,0
2018-06-17T02:27:46.996Z,0
2018-06-17T02:28:27.546Z,0
2018-06-17T02:29:08.108Z,0
2018-06-17T02:29:48.670Z,0
2018-06-17T02:30:29.240Z,0
2018-06-17T02:31:09.804Z,0
2018-06-17T02:31:50.383Z,0
2018-06-17T02:32:30.936Z,0
2018-06-17T02:33:11.498Z,0
2018-06-17T02:33:52.099Z,0
2018-06-17T02:34:32.647Z,0
2018-06-17T02:35:13.237Z,0
2018-06-17T02:35:53.817Z,0
2018-06-17T02:36:34.381Z,0
2018-06-17T02:37:14.927Z,0
2018-06-17T02:37:55.481Z,0
2018-06-17T02:38:36.048Z,0
2018-06-17T02:39:16.607Z,0
2018-06-17T02:39:57.174Z,0
2018-06-17T02:40:37.737Z,0
2018-06-17T02:41:18.289Z,0
2018-06-17T02:41:58.874Z,0
2018-06-17T02:42:39.445Z,0
2018-06-17T02:43:20.001Z,0
2018-06-17T02:44:00.634Z,0
2018-06-17T02:44:41.192Z,0
2018-06-17T02:45:21.773Z,0
2018-06-17T02:46:02.424Z,0
2018-06-17T02:46:42.992Z,0
2018-06-17T02:47:23.549Z,0
2018-06-17T02:48:04.119Z,0
2018-06-17T02:48:44.677Z,0
2018-06-17T02:49:25.253Z,0
2018-06-17T02:50:05.830Z,0
2018-06-17T02:50:46.382Z,0
2018-06-17T02:51:26.990Z,0
2018-06-17T02:52:07.548Z,0
2018-06-17T02:52:48.323Z,0
2018-06-17T02:53:28.888Z,5
2018-06-17T02:54:09.518Z,5
2018-06-17T02:54:50.062Z,5
2018-06-17T02:55:30.633Z,5
2018-06-17T02:56:11.185Z,5
2018-06-17T02:56:51.760Z,5
2018-06-17T02:57:32.319Z,5
2018-06-17T02:58:12.898Z,5
2018-06-17T02:58:53.476Z,5
2018-06-17T02:59:34.068Z,5
2018-06-17T03:00:14.932Z,5
2018-06-17T03:00:55.496Z,5
2018-06-17T03:01:36.073Z,5
2018-06-17T03:02:16.644Z,5
2018-06-17T03:02:57.197Z,5
2018-06-17T03:03:37.766Z,5
2018-06-17T03:04:18.323Z,5
2018-06-17T03:04:58.878Z,5
2018-06-17T03:05:39.436Z,5
2018-06-17T03:06:19.985Z,10
2018-06-17T03:07:00.547Z,10
2018-06-17T03:07:41.108Z,10
2018-06-17T03:08:21.671Z,10
2018-06-17T03:09:02.231Z,10
2018-06-17T03:09:42.782Z,10
2018-06-17T03:10:23.360Z,10
2018-06-17T03:11:03.929Z,10
2018-06-17T03:11:44.490Z,10
2018-06-17T03:12:25.046Z,10
2018-06-17T03:13:05.611Z,10
2018-06-17T03:13:46.168Z,10
2018-06-17T03:14:26.703Z,10
2018-06-17T03:15:07.276Z,10
2018-06-17T03:15:47.864Z,10
2018-06-17T03:16:28.445Z,10
2018-06-17T03:17:09.060Z,15
2018-06-17T03:17:49.588Z,15
2018-06-17T03:18:30.166Z,15
2018-06-17T03:19:10.740Z,15
2018-06-17T03:19:51.276Z,15
2018-06-17T03:20:31.836Z,15
2018-06-17T03:21:12.449Z,15
2018-06-17T03:21:53.018Z,15
2018-06-17T03:22:33.563Z,15
2018-06-17T03:23:14.137Z,15
2018-06-17T03:23:54.715Z,15
2018-06-17T03:24:35.311Z,15
2018-06-17T03:25:15.865Z,15
2018-06-17T03:25:56.412Z,15
2018-06-17T03:26:36.973Z,20
2018-06-17T03:27:17.504Z,20
2018-06-17T03:27:58.074Z,20
2018-06-17T03:28:38.614Z,20
2018-06-17T03:29:19.180Z,20
2018-06-17T03:29:59.743Z,20
2018-06-17T03:30:40.299Z,20
2018-06-17T03:31:20.876Z,20
2018-06-17T03:32:01.470Z,20
2018-06-17T03:32:42.028Z,20
2018-06-17T03:33:22.587Z,20
2018-06-17T03:34:03.133Z,25
2018-06-17T03:34:43.699Z,25
2018-06-17T03:35:24.265Z,25
2018-06-17T03:36:04.848Z,25
2018-06-17T03:36:45.432Z,25
2018-06-17T03:37:25.984Z,25
2018-06-17T03:38:06.545Z,25
2018-06-17T03:38:47.101Z,25
2018-06-17T03:39:27.672Z,25
2018-06-17T03:40:08.205Z,25
2018-06-17T03:40:48.798Z,30
2018-06-17T03:41:29.365Z,30
2018-06-17T03:42:09.936Z,30
2018-06-17T03:42:50.484Z,30
2018-06-17T03:43:31.034Z,30
2018-06-17T03:44:11.630Z,30
2018-06-17T03:44:52.161Z,30
2018-06-17T03:45:32.790Z,30
2018-06-17T03:46:13.349Z,30
2018-06-17T03:46:53.909Z,35
2018-06-17T03:47:34.493Z,35
2018-06-17T03:48:15.064Z,35
2018-06-17T03:48:55.714Z,35
2018-06-17T03:49:36.268Z,35
2018-06-17T03:50:16.840Z,35
2018-06-17T03:50:57.410Z,35
2018-06-17T03:51:37.989Z,35
2018-06-17T03:52:18.542Z,35
2018-06-17T03:52:59.098Z,40
2018-06-17T03:53:39.674Z,40
2018-06-17T03:54:20.237Z,40
2018-06-17T03:55:00.800Z,40
2018-06-17T03:55:41.366Z,40
2018-06-17T03:56:21.931Z,40
2018-06-17T03:57:02.546Z,40
2018-06-17T03:57:43.105Z,40
2018-06-17T03:58:23.674Z,40
2018-06-17T03:59:04.210Z,45
2018-06-17T03:59:44.767Z,45
2018-06-17T04:00:25.338Z,45
2018-06-17T04:01:05.900Z,45
2018-06-17T04:01:46.466Z,45
2018-06-17T04:02:27.024Z,45
2018-06-17T04:03:07.581Z,45
2018-06-17T04:03:48.154Z,50
2018-06-17T04:04:28.715Z,50
2018-06-17T04:05:09.271Z,50
2018-06-17T04:05:49.861Z,50
2018-06-17T04:06:30.421Z,50
2018-06-17T04:07:11.036Z,50
2018-06-17T04:07:51.610Z,50
2018-06-17T04:08:32.178Z,55
2018-06-17T04:09:12.745Z,55
2018-06-17T04:09:53.313Z,55
2018-06-17T04:10:33.880Z,55
2018-06-17T04:11:14.460Z,55
2018-06-17T04:11:55.037Z,55
2018-06-17T04:12:35.622Z,60
2018-06-17T04:13:16.176Z,60
2018-06-17T04:13:56.745Z,60
2018-06-17T04:14:37.332Z,60
2018-06-17T04:15:17.882Z,60
2018-06-17T04:15:58.487Z,60
2018-06-17T04:16:39.009Z,60
2018-06-17T04:17:19.581Z,65
2018-06-17T04:18:00.193Z,65
2018-06-17T04:18:40.757Z,65
2018-06-17T04:19:21.309Z,65
2018-06-17T04:20:01.864Z,65
2018-06-17T04:20:42.437Z,65
2018-06-17T04:21:23.638Z,65
2018-06-17T04:22:04.202Z,65
2018-06-17T04:22:44.762Z,70
2018-06-17T04:23:25.346Z,70
2018-06-17T04:24:05.903Z,70
2018-06-17T04:24:46.475Z,70
2018-06-17T04:25:27.114Z,70
2018-06-17T04:26:07.625Z,70
2018-06-17T04:26:48.222Z,75
2018-06-17T04:27:28.739Z,75
2018-06-17T04:28:09.330Z,75
2018-06-17T04:28:49.923Z,75
2018-06-17T04:29:30.424Z,75
2018-06-17T04:30:10.980Z,80
2018-06-17T04:30:51.610Z,80
2018-06-17T04:31:32.165Z,80
2018-06-17T04:32:12.728Z,80
2018-06-17T04:32:53.293Z,85
2018-06-17T04:33:33.835Z,85
2018-06-17T04:34:14.408Z,85
2018-06-17T04:34:54.984Z,85
2018-06-17T04:35:35.546Z,85
2018-06-17T04:36:16.165Z,90
2018-06-17T04:36:56.733Z,90
2018-06-17T04:37:37.293Z,90
2018-06-17T04:38:17.885Z,90
2018-06-17T04:38:58.451Z,90
2018-06-17T04:39:38.997Z,90
2018-06-17T04:40:19.565Z,95
2018-06-17T04:41:00.165Z,95
2018-06-17T04:41:40.741Z,95
2018-06-17T04:42:21.273Z,95
2018-06-17T04:43:01.832Z,95
2018-06-17T04:43:42.386Z,95
2018-06-17T04:44:22.937Z,100
2018-06-17T04:45:03.499Z,100
2018-06-17T04:45:44.069Z,100
2018-06-17T04:46:24.640Z,100
2018-06-17T04:47:05.215Z,105
2018-06-17T04:47:45.786Z,105
2018-06-17T04:48:26.400Z,105
2018-06-17T04:49:06.911Z,105
2018-06-17T04:49:47.479Z,110
2018-06-17T04:50:28.054Z,110
2018-06-17T04:51:08.709Z,110
2018-06-17T04:51:49.267Z,110
2018-06-17T04:52:29.833Z,110
2018-06-17T04:53:10.385Z,115
2018-06-17T04:53:50.949Z,115
2018-06-17T04:54:31.503Z,120
2018-06-17T04:55:12.070Z,120
2018-06-17T04:55:52.649Z,125
2018-06-17T04:56:33.221Z,130
2018-06-17T04:57:13.784Z,130
2018-06-17T04:57:54.335Z,135
2018-06-17T04:58:34.894Z,145
2018-06-17T04:59:15.500Z,150
2018-06-17T04:59:56.109Z,150
2018-06-17T05:00:36.624Z,155
2018-06-17T05:01:17.182Z,170
2018-06-17T05:01:57.762Z,265
2018-06-17T05:02:38.313Z,385
2018-06-17T05:03:18.887Z,510
2018-06-17T05:03:59.458Z,635
2018-06-17T05:04:40.031Z,730
2018-06-17T05:05:20.594Z,740
2018-06-17T05:06:01.163Z,750
2018-06-17T05:06:41.740Z,700
2018-06-17T05:07:22.287Z,690
2018-06-17T05:08:02.852Z,445
2018-06-17T05:08:43.410Z,590
2018-06-17T05:09:23.969Z,160
2018-06-17T05:10:04.544Z,120
2018-06-17T05:10:45.102Z,125
2018-06-17T05:11:25.665Z,140
2018-06-17T05:12:06.203Z,135
2018-06-17T05:12:46.752Z,135
2018-06-17T05:13:27.297Z,130
2018-06-17T05:14:07.877Z,135
2018-06-17T05:14:48.434Z,140
2018-06-17T05:15:29.000Z,145
2018-06-17T05:16:09.628Z,145
2018-06-17T05:16:50.198Z,150
2018-06-17T05:17:30.764Z,175
2018-06-17T05:18:11.323Z,155
2018-06-17T05:18:51.915Z,150
2018-06-17T05:19:32.474Z,165
2018-06-17T05:20:13.036Z,175
2018-06-17T05:20:53.623Z,265
2018-06-17T05:21:34.241Z,260
2018-06-17T05:22:14.860Z,240
2018-06-17T05:22:55.419Z,175
2018-06-17T05:23:36.172Z,230
2018-06-17T05:24:16.685Z,225
2018-06-17T05:24:57.246Z,405
2018-06-17T05:25:37.804Z,190
2018-06-17T05:26:18.357Z,810
2018-06-17T05:26:59.007Z,890
2018-06-17T05:27:39.479Z,610
2018-06-17T05:28:20.036Z,185
2018-06-17T05:29:00.610Z,725
2018-06-17T05:29:41.233Z,940
2018-06-17T05:30:21.788Z,925
2018-06-17T05:31:02.730Z,245
2018-06-17T05:31:43.314Z,260
2018-06-17T05:32:23.859Z,1040
2018-06-17T05:33:04.388Z,1065
2018-06-17T05:33:44.962Z,1065
2018-06-17T05:34:25.561Z,1100
2018-06-17T05:35:06.161Z,1055
2018-06-17T05:35:46.689Z,1010
2018-06-17T05:36:27.351Z,1030
2018-06-17T05:37:07.872Z,1025
2018-06-17T05:37:48.421Z,1070
2018-06-17T05:38:29.094Z,1130
2018-06-17T05:39:09.640Z,1200
2018-06-17T05:39:50.173Z,1235
2018-06-17T05:40:31.176Z,1205
2018-06-17T05:41:11.732Z,1150
2018-06-17T05:41:52.387Z,1210
2018-06-17T05:42:32.928Z,1270
2018-06-17T05:43:13.849Z,1285
2018-06-17T05:43:58.186Z,1285
2018-06-17T05:44:39.712Z,1270
2018-06-17T05:45:20.300Z,1285
2018-06-17T05:46:00.948Z,1285
2018-06-17T05:46:41.514Z,1300
2018-06-17T05:47:22.064Z,1280
2018-06-17T05:48:02.616Z,1250
2018-06-17T05:48:43.187Z,1270
2018-06-17T05:49:23.860Z,1280
2018-06-17T05:50:04.521Z,1285
2018-06-17T05:50:45.081Z,1280
2018-06-17T05:51:25.629Z,1310
2018-06-17T05:52:06.215Z,1335
2018-06-17T05:52:46.820Z,1310
2018-06-17T05:53:27.364Z,1275
2018-06-17T05:54:07.925Z,1290
2018-06-17T05:54:48.551Z,1310
2018-06-17T05:55:29.119Z,1340
2018-06-17T05:56:09.684Z,1380
2018-06-17T05:56:50.233Z,1415
2018-06-17T05:57:31.138Z,1390
2018-06-17T05:58:14.163Z,1370
2018-06-17T05:58:55.320Z,1375
2018-06-17T05:59:36.430Z,1360
2018-06-17T06:00:17.220Z,1220
2018-06-17T06:00:58.221Z,1145
2018-06-17T06:01:39.039Z,1260
2018-06-17T06:02:19.671Z,1430
2018-06-17T06:03:00.335Z,1455
2018-06-17T06:03:40.815Z,1420
2018-06-17T06:04:21.366Z,1445
2018-06-17T06:05:01.929Z,1455
2018-06-17T06:05:42.476Z,1475
2018-06-17T06:06:23.454Z,1445
2018-06-17T06:07:04.493Z,1465
2018-06-17T06:07:45.224Z,1485
2018-06-17T06:08:25.857Z,1470
2018-06-17T06:09:06.640Z,1475
2018-06-17T06:09:47.404Z,1460
2018-06-17T06:10:28.029Z,1420
2018-06-17T06:11:08.606Z,1400
2018-06-17T06:11:49.162Z,1435
2018-06-17T06:12:29.733Z,1480
2018-06-17T06:13:10.294Z,1420
2018-06-17T06:13:50.901Z,1405
2018-06-17T06:14:31.480Z,1400
2018-06-17T06:15:12.223Z,1420
2018-06-17T06:15:53.028Z,1480
2018-06-17T06:16:33.622Z,1530
2018-06-17T06:17:14.299Z,1555
2018-06-17T06:17:55.448Z,1545
2018-06-17T06:18:36.301Z,1570
2018-06-17T06:19:17.084Z,1580
2018-06-17T06:19:57.996Z,1620
2018-06-17T06:20:38.573Z,1605
2018-06-17T06:21:19.114Z,1610
2018-06-17T06:21:59.832Z,1570
2018-06-17T06:22:40.708Z,1590
2018-06-17T06:23:22.904Z,1570
2018-06-17T06:24:03.718Z,1585
2018-06-17T06:24:44.427Z,1560
2018-06-17T06:25:24.981Z,1590
2018-06-17T06:26:05.889Z,1640
2018-06-17T06:26:46.462Z,1625
2018-06-17T06:27:27.027Z,1640
2018-06-17T06:28:08.067Z,1660
2018-06-17T06:28:48.739Z,1675
2018-06-17T06:29:29.548Z,1600
2018-06-17T06:30:10.490Z,1570
2018-06-17T06:30:51.286Z,1690
2018-06-17T06:31:32.099Z,1690
2018-06-17T06:32:12.898Z,1625
2018-06-17T06:32:54.316Z,1605
2018-06-17T06:33:34.966Z,1670
2018-06-17T06:34:16.054Z,1665
2018-06-17T06:34:56.845Z,1630
2018-06-17T06:35:37.660Z,1655
2018-06-17T06:36:19.031Z,1615
2018-06-17T06:36:59.616Z,1575
2018-06-17T06:37:40.178Z,1605
2018-06-17T06:38:20.874Z,1690
2018-06-17T06:39:02.049Z,1695
2018-06-17T06:39:43.017Z,1650
2018-06-17T06:40:23.654Z,1595
2018-06-17T06:41:04.390Z,1580
2018-06-17T06:41:44.964Z,1610
2018-06-17T06:42:25.791Z,1580
2018-06-17T06:43:06.928Z,1620
2018-06-17T06:43:47.589Z,1640
2018-06-17T06:44:28.578Z,1660
2018-06-17T06:45:09.155Z,1680
2018-06-17T06:45:49.935Z,1735
2018-06-17T06:46:30.808Z,1720
2018-06-17T06:47:11.894Z,1705
2018-06-17T06:47:52.503Z,1690
2018-06-17T06:48:33.106Z,1745
2018-06-17T06:49:13.679Z,1720
2018-06-17T06:49:54.345Z,1840
2018-06-17T06:50:35.466Z,1810
2018-06-17T06:51:16.359Z,1750
2018-06-17T06:51:57.380Z,1570
2018-06-17T06:52:38.439Z,1665
2018-06-17T06:53:19.496Z,1745
2018-06-17T06:54:00.225Z,1745
2018-06-17T06:54:41.087Z,1755
2018-06-17T06:55:21.836Z,1710
2018-06-17T06:56:02.291Z,1675
2018-06-17T06:56:42.820Z,1710
2018-06-17T06:57:23.365Z,1805
2018-06-17T06:58:04.061Z,1760
2018-06-17T06:58:44.616Z,1765
2018-06-17T06:59:25.255Z,1810
2018-06-17T07:00:05.886Z,1735
2018-06-17T07:00:46.889Z,1730
2018-06-17T07:01:27.729Z,1760
2018-06-17T07:02:08.479Z,1730
2018-06-17T07:02:49.068Z,1615
2018-06-17T07:03:29.711Z,1600
2018-06-17T07:04:10.347Z,1555
2018-06-17T07:04:50.880Z,1540
2018-06-17T07:05:31.476Z,1505
2018-06-17T07:06:12.072Z,1455
2018-06-17T07:06:52.628Z,1330
2018-06-17T07:07:33.375Z,1220
2018-06-17T07:08:14.111Z,1180
2018-06-17T07:08:54.663Z,1140
2018-06-17T07:09:35.391Z,1100
2018-06-17T07:10:15.973Z,1020
2018-06-17T07:10:56.700Z,955
2018-06-17T07:11:37.381Z,885
2018-06-17T07:12:18.031Z,840
2018-06-17T07:12:58.628Z,795
2018-06-17T07:13:39.307Z,765
2018-06-17T07:14:19.993Z,740
2018-06-17T07:15:00.617Z,705
2018-06-17T07:15:41.202Z,675
2018-06-17T07:16:21.795Z,650
2018-06-17T07:17:02.372Z,640
2018-06-17T07:17:42.999Z,635
2018-06-17T07:18:23.662Z,630
2018-06-17T07:19:04.261Z,625
2018-06-17T07:19:44.779Z,615
2018-06-17T07:20:25.354Z,605
2018-06-17T07:21:05.905Z,600
2018-06-17T07:21:46.524Z,595
2018-06-17T07:22:27.195Z,590
2018-06-17T07:23:07.885Z,585
2018-06-17T07:23:49.212Z,580
2018-06-17T07:24:29.856Z,570
2018-06-17T07:25:10.628Z,570
2018-06-17T07:25:51.188Z,570
2018-06-17T07:26:31.730Z,570
2018-06-17T07:27:12.307Z,570
2018-06-17T07:27:52.912Z,565
2018-06-17T07:28:33.462Z,560
2018-06-17T07:29:14.013Z,560
2018-06-17T07:29:54.574Z,555
2018-06-17T07:30:35.122Z,555
2018-06-17T07:31:15.695Z,555
2018-06-17T07:31:56.313Z,550
2018-06-17T07:32:37.066Z,545
2018-06-17T07:33:17.601Z,545
2018-06-17T07:33:58.212Z,545
2018-06-17T07:34:38.747Z,540
2018-06-17T07:35:19.323Z,540
2018-06-17T07:35:59.927Z,535
2018-06-17T07:36:40.512Z,535
2018-06-17T07:37:21.077Z,535
2018-06-17T07:38:02.315Z,530
2018-06-17T07:38:43.351Z,535
2018-06-17T07:39:23.934Z,530
2018-06-17T07:40:04.952Z,530
2018-06-17T07:40:45.865Z,500
2018-06-17T07:41:26.887Z,520
2018-06-17T07:42:07.738Z,530
2018-06-17T07:42:48.836Z,535
2018-06-17T07:43:29.628Z,535
2018-06-17T07:44:10.737Z,540
2018-06-17T07:44:52.190Z,550
2018-06-17T07:45:33.342Z,555
2018-06-17T07:46:14.379Z,560
2018-06-17T07:46:55.399Z,560
2018-06-17T07:47:36.888Z,565
2018-06-17T07:48:18.866Z,565
2018-06-17T07:49:00.043Z,560
2018-06-17T07:49:41.136Z,555
2018-06-17T07:50:22.098Z,555
2018-06-17T07:51:02.990Z,555
2018-06-17T07:51:44.013Z,555
2018-06-17T07:52:24.816Z,545
2018-06-17T07:53:05.813Z,550
2018-06-17T07:53:46.780Z,555
2018-06-17T07:54:27.656Z,545
2018-06-17T07:55:09.331Z,550
2018-06-17T07:55:49.538Z,540
2018-06-17T07:56:31.131Z,540
2018-06-17T07:57:12.450Z,535
2018-06-17T07:57:53.651Z,520
2018-06-17T07:58:34.712Z,510
2018-06-17T07:59:15.276Z,495
2018-06-17T07:59:56.358Z,465
2018-06-17T08:00:37.419Z,420
2018-06-17T08:01:18.539Z,395
2018-06-17T08:01:59.374Z,390
2018-06-17T08:02:41.654Z,395
2018-06-17T08:03:23.013Z,390
2018-06-17T08:04:03.126Z,385
2018-06-17T08:04:44.433Z,385
2018-06-17T08:05:25.172Z,385
2018-06-17T08:06:06.024Z,380
2018-06-17T08:06:46.675Z,375
2018-06-17T08:07:27.715Z,370
2018-06-17T08:08:08.729Z,370
2018-06-17T08:08:49.999Z,370
2018-06-17T08:09:31.617Z,370
2018-06-17T08:10:11.784Z,370
2018-06-17T08:10:52.619Z,370
2018-06-17T08:11:34.616Z,370
2018-06-17T08:12:15.868Z,370
2018-06-17T08:12:57.301Z,365
2018-06-17T08:13:37.994Z,365
2018-06-17T08:14:19.175Z,360
2018-06-17T08:14:59.711Z,360
2018-06-17T08:15:40.734Z,360
2018-06-17T08:16:22.162Z,360
2018-06-17T08:17:02.741Z,360
2018-06-17T08:17:43.332Z,360
2018-06-17T08:18:24.271Z,350
2018-06-17T08:19:04.999Z,340
2018-06-17T08:19:45.936Z,350
2018-06-17T08:20:26.897Z,345
2018-06-17T08:21:07.733Z,325
2018-06-17T08:21:48.519Z,350
2018-06-17T08:22:29.288Z,330
2018-06-17T08:23:09.890Z,335
2018-06-17T08:23:50.857Z,295
2018-06-17T08:24:32.084Z,275
2018-06-17T08:25:12.636Z,275
2018-06-17T08:25:53.335Z,275
2018-06-17T08:26:34.049Z,280
2018-06-17T08:27:14.841Z,305
2018-06-17T08:27:55.736Z,325
2018-06-17T08:28:36.508Z,340
2018-06-17T08:29:17.592Z,350
2018-06-17T08:29:58.609Z,355
2018-06-17T08:30:39.392Z,355
2018-06-17T08:31:20.089Z,345
2018-06-17T08:32:01.473Z,330
2018-06-17T08:32:42.145Z,295
2018-06-17T08:33:22.979Z,270
2018-06-17T08:34:04.103Z,300
2018-06-17T08:34:44.912Z,305
2018-06-17T08:35:25.730Z,300
2018-06-17T08:36:06.483Z,305
2018-06-17T08:36:47.823Z,305
2018-06-17T08:37:28.617Z,300
2018-06-17T08:38:09.240Z,295
2018-06-17T08:38:50.444Z,290
2018-06-17T08:39:31.027Z,285
2018-06-17T08:40:11.831Z,280
2018-06-17T08:40:52.695Z,275
2018-06-17T08:41:33.642Z,270
2018-06-17T08:42:14.233Z,245
2018-06-17T08:42:55.133Z,270
2018-06-17T08:43:36.087Z,270
2018-06-17T08:44:17.135Z,270
2018-06-17T08:44:57.884Z,275
2018-06-17T08:45:38.665Z,275
2018-06-17T08:46:19.313Z,275
2018-06-17T08:46:59.993Z,265
2018-06-17T08:47:40.915Z,270
2018-06-17T08:48:21.670Z,275
2018-06-17T08:49:02.721Z,275
2018-06-17T08:51:31.658Z,275
2018-06-17T08:52:12.264Z,275
2018-06-17T08:52:53.120Z,260
2018-06-17T08:53:34.083Z,265
2018-06-17T08:54:15.017Z,230
2018-06-17T08:54:56.332Z,245
2018-06-17T08:55:37.086Z,210
2018-06-17T08:56:18.347Z,220
2018-06-17T08:56:58.928Z,220
2018-06-17T08:57:41.149Z,220
2018-06-17T08:58:21.549Z,225
2018-06-17T08:59:02.276Z,225
2018-06-17T08:59:43.325Z,240
2018-06-17T09:00:24.284Z,235
2018-06-17T09:01:05.355Z,275
2018-06-17T09:01:46.517Z,245
2018-06-17T09:02:27.513Z,250
2018-06-17T09:03:08.479Z,260
2018-06-17T09:03:49.150Z,250
2018-06-17T09:04:30.115Z,275
2018-06-17T09:05:11.184Z,275
2018-06-17T09:05:52.265Z,295
2018-06-17T09:06:33.422Z,285
2018-06-17T09:07:14.216Z,275
2018-06-17T09:07:55.014Z,260
2018-06-17T09:08:35.864Z,230
2018-06-17T09:09:16.751Z,220
2018-06-17T09:09:57.561Z,255
2018-06-17T09:10:38.702Z,240
2018-06-17T09:11:19.787Z,255
2018-06-17T09:12:01.167Z,265
2018-06-17T09:12:41.973Z,270
2018-06-17T09:13:22.702Z,265
2018-06-17T09:14:03.655Z,260
2018-06-17T09:14:44.790Z,255
2018-06-17T09:15:25.627Z,245
2018-06-17T09:16:06.372Z,240
2018-06-17T09:16:46.949Z,230
2018-06-17T09:17:27.954Z,220
2018-06-17T09:18:08.674Z,210
2018-06-17T09:18:49.518Z,205
2018-06-17T09:19:30.174Z,200
2018-06-17T09:20:10.950Z,200
2018-06-17T09:20:52.557Z,195
2018-06-17T09:21:33.874Z,195
2018-06-17T09:22:14.735Z,190
2018-06-17T09:22:55.516Z,195
2018-06-17T09:23:36.266Z,190
2018-06-17T09:24:17.634Z,190
2018-06-17T09:24:58.747Z,185
2018-06-17T09:25:39.546Z,185
2018-06-17T09:26:20.790Z,190
2018-06-17T09:27:01.355Z,190
2018-06-17T09:27:42.008Z,185
2018-06-17T09:28:22.844Z,185
2018-06-17T09:29:03.892Z,185
2018-06-17T09:29:44.485Z,180
2018-06-17T09:30:25.473Z,180
2018-06-17T09:31:06.265Z,180
2018-06-17T09:31:47.976Z,155
2018-06-17T09:32:28.735Z,180
2018-06-17T09:33:09.833Z,180
2018-06-17T09:33:50.628Z,165
2018-06-17T09:34:31.299Z,165
2018-06-17T09:35:12.122Z,170
2018-06-17T09:35:52.877Z,165
2018-06-17T09:36:33.638Z,165